Time;durP1;ratioP1;P1;durP2;ratioP2;P2;SDS_P1;SDS_P2;PMS_P1;PMS_P2;Temp;Humidity;BMP_temperature;BMP_pressure;BME280_temperature;BME280_humidity;BME280_pressure;Samples;Min_cycle;Max_cycle;Signal;HPM_P1;HPM_P2
2023/07/26 00:01:25;;;;;;;;;;;;;;;;;;5032095;28;19975;-75
2023/07/26 00:03:54;;;;;;;;;;;;;;;;;;5046796;28;19979;-75
2023/07/26 00:06:22;;;;;;;;;;;;;;;;;;5045374;28;20067;-74
2023/07/26 00:08:47;;;;;;;;;;;;;;;;;;5045109;28;19917;-73
2023/07/26 00:11:13;;;;;;;;;;;;;;;;;;5029929;28;19974;-74
2023/07/26 00:13:38;;;;;;;;;;;;;;;;;;5028218;28;19912;-74
2023/07/26 00:16:03;;;;;;;;;;;;;;;;;;5028430;28;20304;-75
2023/07/26 00:18:29;;;;;;;;;;;;;;;;;;5044857;28;19952;-75
2023/07/26 00:20:54;;;;;;;;;;;;;;;;;;5029583;28;19948;-75
2023/07/26 00:23:19;;;;;;;;;;;;;;;;;;5029122;28;19962;-73
2023/07/26 00:25:44;;;;;;;;;;;;;;;;;;5045600;28;19921;-73
2023/07/26 00:28:10;;;;;;;;;;;;;;;;;;5028609;28;19927;-74
2023/07/26 00:30:35;;;;;;;;;;;;;;;;;;5028162;28;20042;-72
2023/07/26 00:33:01;;;;;;;;;;;;;;;;;;5024612;28;20411;-74
2023/07/26 00:35:31;;;;;;;;;;;;;;;;;;5029153;28;19921;-75
2023/07/26 00:37:57;;;;;;;;;;;;;;;;;;5029364;28;19927;-74
2023/07/26 00:40:22;;;;;;;;;;;;;;;;;;5029066;28;19920;-74
2023/07/26 00:42:47;;;;;;;;;;;;;;;;;;5043934;28;20319;-74
2023/07/26 00:45:13;;;;;;;;;;;;;;;;;;5044642;28;19966;-74
2023/07/26 00:47:38;;;;;;;;;;;;;;;;;;5025412;28;19917;-74
2023/07/26 00:50:03;;;;;;;;;;;;;;;;;;5014962;28;19964;-74
2023/07/26 00:52:29;;;;;;;;;;;;;;;;;;5044577;28;19927;-74
2023/07/26 00:55:00;;;;;;;;;;;;;;;;;;5045025;28;19925;-75
2023/07/26 00:57:25;;;;;;;;;;;;;;;;;;5044126;28;20859;-74
2023/07/26 00:59:50;;;;;;;;;;;;;;;;;;5029891;28;19917;-74
2023/07/26 01:02:15;;;;;;;;;;;;;;;;;;5044546;28;19956;-74
2023/07/26 01:04:41;;;;;;;;;;;;;;;;;;5029243;28;20375;-75
2023/07/26 01:07:08;;;;;;;;;;;;;;;;;;5043960;28;19921;-75
2023/07/26 01:09:33;;;;;;;;;;;;;;;;;;5028201;28;20016;-73
2023/07/26 01:11:59;;;;;;;;;;;;;;;;;;5026627;28;20392;-69
2023/07/26 01:14:26;;;;;;;;;;;;;;;;;;5028596;28;19920;-73
2023/07/26 01:16:54;;;;;;;;;;;;;;;;;;5014543;28;19924;-73
2023/07/26 01:19:19;;;;;;;;;;;;;;;;;;5015679;28;19921;-73
2023/07/26 01:21:45;;;;;;;;;;;;;;;;;;5046606;28;19958;-72
2023/07/26 01:24:10;;;;;;;;;;;;;;;;;;5028670;28;19920;-73
2023/07/26 01:26:35;;;;;;;;;;;;;;;;;;5027314;28;19917;-73
2023/07/26 01:29:03;;;;;;;;;;;;;;;;;;5027632;28;20064;-73
2023/07/26 01:31:28;;;;;;;;;;;;;;;;;;5009879;28;20860;-73
2023/07/26 01:33:54;;;;;;;;;;;;;;;;;;5027844;28;19932;-74
2023/07/26 01:36:22;;;;;;;;;;;;;;;;;;5042935;28;19958;-72
2023/07/26 01:38:57;;;;;;;;;;;;;;;;;;5042206;28;19921;-73
2023/07/26 01:41:22;;;;;;;;;;;;;;;;;;5024040;28;19917;-74
2023/07/26 01:43:50;;;;;;;;;;;;;;;;;;5026731;28;19928;-73
2023/07/26 01:46:17;;;;;;;;;;;;;;;;;;5026813;28;19921;-73
2023/07/26 01:48:43;;;;;;;;;;;;;;;;;;5026039;28;19928;-73
2023/07/26 01:51:08;;;;;;;;;;;;;;;;;;5025699;28;19924;-73
2023/07/26 01:53:33;;;;;;;;;;;;;;;;;;5043162;28;19920;-73
2023/07/26 01:56:02;;;;;;;;;;;;;;;;;;5028127;28;19960;-74
2023/07/26 01:58:27;;;;;;;;;;;;;;;;;;5025978;28;20020;-73
2023/07/26 02:00:52;;;;;;;;;;;;;;;;;;5047131;28;20908;-74
2023/07/26 02:03:17;;;;;;;;;;;;;;;;;;5031322;28;20002;-73
2023/07/26 02:05:46;;;;;;;;;;;;;;;;;;5048566;28;19928;-74
2023/07/26 02:08:11;;;;;;;;;;;;;;;;;;5032388;28;19921;-73
2023/07/26 02:10:36;;;;;;;;;;;;;;;;;;5031442;28;21079;-73
2023/07/26 02:13:02;;;;;;;;;;;;;;;;;;5047337;28;19917;-72
2023/07/26 02:15:27;;;;;;;;;;;;;;;;;;5047637;28;20519;-73
2023/07/26 02:17:52;;;;;;;;;;;;;;;;;;5017947;28;19921;-73
2023/07/26 02:20:20;;;;;;;;;;;;;;;;;;5031372;28;19967;-73
2023/07/26 02:22:53;;;;;;;;;;;;;;;;;;5031431;28;20047;-73
2023/07/26 02:25:18;;;;;;;;;;;;;;;;;;5017202;28;19917;-73
2023/07/26 02:27:43;;;;;;;;;;;;;;;;;;5032484;28;19921;-73
2023/07/26 02:30:09;;;;;;;;;;;;;;;;;;5049575;28;20004;-72
2023/07/26 02:32:36;;;;;;;;;;;;;;;;;;5016558;28;20023;-73
2023/07/26 02:35:04;;;;;;;;;;;;;;;;;;5033765;28;19916;-73
2023/07/26 02:37:32;;;;;;;;;;;;;;;;;;5048890;28;19917;-73
2023/07/26 02:40:00;;;;;;;;;;;;;;;;;;5049308;28;20003;-73
2023/07/26 02:42:26;;;;;;;;;;;;;;;;;;5031338;28;20011;-72
2023/07/26 02:44:51;;;;;;;;;;;;;;;;;;5031887;28;19920;-74
2023/07/26 02:47:16;;;;;;;;;;;;;;;;;;5016768;28;19913;-73
2023/07/26 02:49:41;;;;;;;;;;;;;;;;;;5033439;28;19925;-73
2023/07/26 02:52:07;;;;;;;;;;;;;;;;;;5031577;28;19924;-73
2023/07/26 02:54:35;;;;;;;;;;;;;;;;;;5052468;28;19924;-74
2023/07/26 02:57:00;;;;;;;;;;;;;;;;;;5034250;28;19920;-73
2023/07/26 02:59:25;;;;;;;;;;;;;;;;;;5034211;28;19932;-73
2023/07/26 03:01:53;;;;;;;;;;;;;;;;;;5038912;28;20031;-72
2023/07/26 03:04:18;;;;;;;;;;;;;;;;;;5018668;28;19936;-71
2023/07/26 03:06:44;;;;;;;;;;;;;;;;;;5032260;28;19917;-72
2023/07/26 03:09:09;;;;;;;;;;;;;;;;;;5031379;28;19920;-71
2023/07/26 03:11:34;;;;;;;;;;;;;;;;;;5035231;28;19963;-74
2023/07/26 03:14:00;;;;;;;;;;;;;;;;;;5017017;28;19917;-73
2023/07/26 03:16:26;;;;;;;;;;;;;;;;;;5033709;28;19925;-73
2023/07/26 03:18:54;;;;;;;;;;;;;;;;;;5031535;28;21852;-73
2023/07/26 03:21:21;;;;;;;;;;;;;;;;;;5047718;28;20794;-73
2023/07/26 03:23:46;;;;;;;;;;;;;;;;;;5048826;28;19928;-73
2023/07/26 03:26:14;;;;;;;;;;;;;;;;;;5032759;28;20836;-72
2023/07/26 03:28:41;;;;;;;;;;;;;;;;;;5035305;28;19923;-72
2023/07/26 03:31:09;;;;;;;;;;;;;;;;;;5032864;28;19921;-72
2023/07/26 03:33:40;;;;;;;;;;;;;;;;;;5034551;28;19921;-73
2023/07/26 03:36:05;;;;;;;;;;;;;;;;;;5031331;28;19920;-72
2023/07/26 03:38:31;;;;;;;;;;;;;;;;;;5045865;28;19929;-73
2023/07/26 03:40:56;;;;;;;;;;;;;;;;;;5035724;28;19920;-73
2023/07/26 03:43:21;;;;;;;;;;;;;;;;;;5049019;28;19913;-72
2023/07/26 03:45:46;;;;;;;;;;;;;;;;;;5031992;28;19917;-72
2023/07/26 03:48:12;;;;;;;;;;;;;;;;;;5016677;28;19921;-72
2023/07/26 03:50:37;;;;;;;;;;;;;;;;;;5027645;28;19994;-71
2023/07/26 03:53:05;;;;;;;;;;;;;;;;;;5008825;28;20273;-70
2023/07/26 03:55:30;;;;;;;;;;;;;;;;;;5025344;28;19971;-72
2023/07/26 03:57:55;;;;;;;;;;;;;;;;;;5027635;28;19912;-73
2023/07/26 04:00:21;;;;;;;;;;;;;;;;;;5041853;28;19921;-73
2023/07/26 04:02:46;;;;;;;;;;;;;;;;;;5014073;28;19977;-73
2023/07/26 04:05:11;;;;;;;;;;;;;;;;;;5026420;28;19916;-74
2023/07/26 04:07:43;;;;;;;;;;;;;;;;;;5027957;28;20008;-74
2023/07/26 04:10:09;;;;;;;;;;;;;;;;;;5027320;28;20331;-75
2023/07/26 04:12:34;;;;;;;;;;;;;;;;;;5026805;28;19921;-74
2023/07/26 04:14:59;;;;;;;;;;;;;;;;;;5010599;28;19917;-74
2023/07/26 04:17:24;;;;;;;;;;;;;;;;;;5025197;28;19925;-74
2023/07/26 04:19:50;;;;;;;;;;;;;;;;;;5021408;28;19916;-74
2023/07/26 04:22:15;;;;;;;;;;;;;;;;;;5041560;28;20027;-74
2023/07/26 04:24:40;;;;;;;;;;;;;;;;;;4994120;28;20318;-75
2023/07/26 04:27:06;;;;;;;;;;;;;;;;;;5025665;28;19917;-76
2023/07/26 04:29:31;;;;;;;;;;;;;;;;;;5042029;28;20765;-77
2023/07/26 04:31:56;;;;;;;;;;;;;;;;;;5025177;28;19923;-74
2023/07/26 04:34:21;;;;;;;;;;;;;;;;;;5009544;28;20583;-75
2023/07/26 04:36:47;;;;;;;;;;;;;;;;;;5041306;28;19920;-74
2023/07/26 04:39:12;;;;;;;;;;;;;;;;;;5041386;28;20363;-75
2023/07/26 04:41:37;;;;;;;;;;;;;;;;;;5008430;28;19920;-75
2023/07/26 04:44:03;;;;;;;;;;;;;;;;;;5042785;28;20474;-76
2023/07/26 04:46:28;;;;;;;;;;;;;;;;;;5013277;28;19926;-76
2023/07/26 04:48:53;;;;;;;;;;;;;;;;;;5025106;28;19952;-75
2023/07/26 04:51:19;;;;;;;;;;;;;;;;;;5041380;28;20501;-75
2023/07/26 04:53:44;;;;;;;;;;;;;;;;;;5025640;28;19917;-74
2023/07/26 04:56:10;;;;;;;;;;;;;;;;;;5027050;28;19916;-74
2023/07/26 04:58:35;;;;;;;;;;;;;;;;;;4995629;28;19924;-74
2023/07/26 05:01:00;;;;;;;;;;;;;;;;;;5027818;28;19921;-76
2023/07/26 05:03:26;;;;;;;;;;;;;;;;;;5041750;28;19920;-74
2023/07/26 05:05:51;;;;;;;;;;;;;;;;;;5014566;28;20011;-75
2023/07/26 05:08:16;;;;;;;;;;;;;;;;;;5042193;28;20365;-75
2023/07/26 05:10:41;;;;;;;;;;;;;;;;;;5006418;28;20530;-74
2023/07/26 05:13:07;;;;;;;;;;;;;;;;;;5024473;28;20011;-74
2023/07/26 05:15:32;;;;;;;;;;;;;;;;;;5008389;28;20529;-74
2023/07/26 05:17:57;;;;;;;;;;;;;;;;;;5005771;28;20051;-75
2023/07/26 05:20:23;;;;;;;;;;;;;;;;;;5021035;28;19984;-75
2023/07/26 05:22:48;;;;;;;;;;;;;;;;;;5005134;28;20051;-73
2023/07/26 05:25:13;;;;;;;;;;;;;;;;;;5003643;28;19922;-76
2023/07/26 05:27:38;;;;;;;;;;;;;;;;;;5003578;28;19923;-77
2023/07/26 05:30:07;;;;;;;;;;;;;;;;;;5005684;28;19925;-75
2023/07/26 05:32:32;;;;;;;;;;;;;;;;;;5003819;28;19925;-75
2023/07/26 05:34:58;;;;;;;;;;;;;;;;;;5038391;28;20413;-78
2023/07/26 05:37:23;;;;;;;;;;;;;;;;;;5024859;28;20025;-76
2023/07/26 05:39:48;;;;;;;;;;;;;;;;;;5012393;28;19924;-75
2023/07/26 05:42:14;;;;;;;;;;;;;;;;;;5024494;28;19921;-75
2023/07/26 05:44:39;;;;;;;;;;;;;;;;;;5008372;28;19925;-76
2023/07/26 05:47:04;;;;;;;;;;;;;;;;;;5040843;28;19927;-75
2023/07/26 05:49:30;;;;;;;;;;;;;;;;;;5009262;28;20007;-76
2023/07/26 05:51:55;;;;;;;;;;;;;;;;;;5025607;28;19959;-74
2023/07/26 05:54:20;;;;;;;;;;;;;;;;;;5040847;28;19944;-74
2023/07/26 05:56:45;;;;;;;;;;;;;;;;;;5009784;28;20055;-74
2023/07/26 05:59:11;;;;;;;;;;;;;;;;;;5008026;28;19927;-73
2023/07/26 06:01:36;;;;;;;;;;;;;;;;;;5006470;28;20288;-72
2023/07/26 06:04:02;;;;;;;;;;;;;;;;;;5007963;28;19952;-73
2023/07/26 06:06:27;;;;;;;;;;;;;;;;;;5039011;28;19921;-72
2023/07/26 06:08:53;;;;;;;;;;;;;;;;;;5039621;28;19917;-73
2023/07/26 06:11:18;;;;;;;;;;;;;;;;;;5008757;28;20600;-72
2023/07/26 06:13:46;;;;;;;;;;;;;;;;;;5007200;28;19928;-74
2023/07/26 06:16:11;;;;;;;;;;;;;;;;;;5016481;28;19925;-74
